sensor_id;sensor_type;location;lat;lon;timestamp;P1;durP1;ratioP1;P2;durP2;ratioP2
70228;SDS011;57617;51.988;5.854;2022-12-24T00:00:22;29.38;;;3.53;;
70228;SDS011;57617;51.988;5.854;2022-12-24T00:02:51;35.03;;;4.55;;
70228;SDS011;57617;51.988;5.854;2022-12-24T00:05:17;38.22;;;4.45;;
70228;SDS011;57617;51.988;5.854;2022-12-24T00:07:42;34.95;;;4.07;;
70228;SDS011;57617;51.988;5.854;2022-12-24T00:10:08;41.45;;;3.65;;
70228;SDS011;57617;51.988;5.854;2022-12-24T00:12:33;38.10;;;4.03;;
70228;SDS011;57617;51.988;5.854;2022-12-24T00:14:59;38.72;;;3.80;;
70228;SDS011;57617;51.988;5.854;2022-12-24T00:17:24;36.20;;;3.88;;
70228;SDS011;57617;51.988;5.854;2022-12-24T00:19:50;33.83;;;3.70;;
70228;SDS011;57617;51.988;5.854;2022-12-24T00:22:15;45.05;;;4.45;;
70228;SDS011;57617;51.988;5.854;2022-12-24T00:24:40;40.75;;;4.03;;
70228;SDS011;57617;51.988;5.854;2022-12-24T00:27:05;37.20;;;4.20;;
70228;SDS011;57617;51.988;5.854;2022-12-24T00:29:31;46.72;;;4.53;;
70228;SDS011;57617;51.988;5.854;2022-12-24T00:31:57;43.28;;;5.35;;
70228;SDS011;57617;51.988;5.854;2022-12-24T00:34:23;34.88;;;4.13;;
70228;SDS011;57617;51.988;5.854;2022-12-24T00:36:49;40.63;;;4.68;;
70228;SDS011;57617;51.988;5.854;2022-12-24T00:39:14;41.10;;;4.22;;
70228;SDS011;57617;51.988;5.854;2022-12-24T00:41:40;45.42;;;4.38;;
70228;SDS011;57617;51.988;5.854;2022-12-24T00:44:05;36.13;;;4.03;;
70228;SDS011;57617;51.988;5.854;2022-12-24T00:46:34;41.63;;;4.32;;
70228;SDS011;57617;51.988;5.854;2022-12-24T00:49:01;36.42;;;4.40;;
70228;SDS011;57617;51.988;5.854;2022-12-24T00:51:27;32.63;;;4.40;;
70228;SDS011;57617;51.988;5.854;2022-12-24T00:53:52;39.25;;;4.03;;
70228;SDS011;57617;51.988;5.854;2022-12-24T00:56:18;33.20;;;3.70;;
70228;SDS011;57617;51.988;5.854;2022-12-24T00:58:44;38.58;;;5.00;;
70228;SDS011;57617;51.988;5.854;2022-12-24T01:01:09;41.47;;;4.57;;
70228;SDS011;57617;51.988;5.854;2022-12-24T01:03:35;42.35;;;4.07;;
70228;SDS011;57617;51.988;5.854;2022-12-24T01:06:04;42.55;;;4.20;;
70228;SDS011;57617;51.988;5.854;2022-12-24T01:08:31;40.13;;;3.92;;
70228;SDS011;57617;51.988;5.854;2022-12-24T01:10:57;38.72;;;4.35;;
70228;SDS011;57617;51.988;5.854;2022-12-24T01:13:22;40.20;;;4.15;;
70228;SDS011;57617;51.988;5.854;2022-12-24T01:15:47;49.30;;;4.60;;
70228;SDS011;57617;51.988;5.854;2022-12-24T01:18:13;34.70;;;4.53;;
70228;SDS011;57617;51.988;5.854;2022-12-24T01:20:38;39.38;;;4.10;;
70228;SDS011;57617;51.988;5.854;2022-12-24T01:23:03;51.03;;;5.30;;
70228;SDS011;57617;51.988;5.854;2022-12-24T01:25:29;41.90;;;4.82;;
70228;SDS011;57617;51.988;5.854;2022-12-24T01:27:54;33.53;;;3.83;;
70228;SDS011;57617;51.988;5.854;2022-12-24T01:30:19;36.92;;;3.97;;
70228;SDS011;57617;51.988;5.854;2022-12-24T01:32:45;50.95;;;4.30;;
70228;SDS011;57617;51.988;5.854;2022-12-24T01:35:10;45.17;;;4.38;;
70228;SDS011;57617;51.988;5.854;2022-12-24T01:37:36;40.33;;;4.50;;
70228;SDS011;57617;51.988;5.854;2022-12-24T01:40:02;47.60;;;4.50;;
70228;SDS011;57617;51.988;5.854;2022-12-24T01:42:47;44.20;;;4.30;;
70228;SDS011;57617;51.988;5.854;2022-12-24T01:45:39;43.35;;;4.28;;
70228;SDS011;57617;51.988;5.854;2022-12-24T01:48:06;39.20;;;4.07;;
70228;SDS011;57617;51.988;5.854;2022-12-24T01:50:38;49.08;;;4.72;;
70228;SDS011;57617;51.988;5.854;2022-12-24T01:53:03;46.63;;;3.95;;
70228;SDS011;57617;51.988;5.854;2022-12-24T01:55:30;38.88;;;3.65;;
70228;SDS011;57617;51.988;5.854;2022-12-24T01:57:56;42.42;;;4.00;;
70228;SDS011;57617;51.988;5.854;2022-12-24T02:00:23;51.65;;;4.38;;
70228;SDS011;57617;51.988;5.854;2022-12-24T02:02:49;43.03;;;4.65;;
70228;SDS011;57617;51.988;5.854;2022-12-24T02:05:22;43.20;;;3.95;;
70228;SDS011;57617;51.988;5.854;2022-12-24T02:07:52;43.42;;;3.70;;
70228;SDS011;57617;51.988;5.854;2022-12-24T02:10:18;34.25;;;4.03;;
70228;SDS011;57617;51.988;5.854;2022-12-24T02:12:43;43.17;;;4.30;;
70228;SDS011;57617;51.988;5.854;2022-12-24T02:15:12;40.70;;;3.72;;
70228;SDS011;57617;51.988;5.854;2022-12-24T02:20:22;41.70;;;3.85;;
70228;SDS011;57617;51.988;5.854;2022-12-24T02:23:01;43.47;;;4.43;;
70228;SDS011;57617;51.988;5.854;2022-12-24T02:25:56;35.50;;;3.97;;
70228;SDS011;57617;51.988;5.854;2022-12-24T02:34:11;43.47;;;4.20;;
70228;SDS011;57617;51.988;5.854;2022-12-24T02:36:45;32.35;;;3.67;;
70228;SDS011;57617;51.988;5.854;2022-12-24T02:39:18;31.17;;;4.38;;
70228;SDS011;57617;51.988;5.854;2022-12-24T02:41:51;34.20;;;4.00;;
70228;SDS011;57617;51.988;5.854;2022-12-24T02:44:45;38.10;;;4.03;;
70228;SDS011;57617;51.988;5.854;2022-12-24T02:47:15;33.08;;;3.20;;
70228;SDS011;57617;51.988;5.854;2022-12-24T02:49:44;44.58;;;4.15;;
70228;SDS011;57617;51.988;5.854;2022-12-24T02:55:02;32.53;;;4.20;;
70228;SDS011;57617;51.988;5.854;2022-12-24T03:00:25;30.90;;;3.22;;
70228;SDS011;57617;51.988;5.854;2022-12-24T03:05:48;29.65;;;4.15;;
70228;SDS011;57617;51.988;5.854;2022-12-24T03:08:43;31.48;;;3.42;;
70228;SDS011;57617;51.988;5.854;2022-12-24T03:11:15;34.22;;;4.05;;
70228;SDS011;57617;51.988;5.854;2022-12-24T03:13:42;26.63;;;3.17;;
70228;SDS011;57617;51.988;5.854;2022-12-24T03:16:10;34.72;;;4.05;;
70228;SDS011;57617;51.988;5.854;2022-12-24T03:18:41;32.83;;;4.10;;
70228;SDS011;57617;51.988;5.854;2022-12-24T03:21:30;31.80;;;3.05;;
70228;SDS011;57617;51.988;5.854;2022-12-24T03:23:58;37.92;;;3.40;;
70228;SDS011;57617;51.988;5.854;2022-12-24T03:26:24;37.38;;;3.65;;
70228;SDS011;57617;51.988;5.854;2022-12-24T03:28:52;51.40;;;4.32;;
70228;SDS011;57617;51.988;5.854;2022-12-24T03:31:18;34.75;;;3.65;;
70228;SDS011;57617;51.988;5.854;2022-12-24T03:33:44;38.97;;;5.05;;
70228;SDS011;57617;51.988;5.854;2022-12-24T03:36:10;37.08;;;3.90;;
70228;SDS011;57617;51.988;5.854;2022-12-24T03:38:36;47.00;;;3.70;;
70228;SDS011;57617;51.988;5.854;2022-12-24T03:41:02;38.83;;;3.95;;
70228;SDS011;57617;51.988;5.854;2022-12-24T03:43:27;45.40;;;4.10;;
70228;SDS011;57617;51.988;5.854;2022-12-24T03:45:53;43.15;;;4.80;;
70228;SDS011;57617;51.988;5.854;2022-12-24T03:48:18;37.78;;;4.32;;
70228;SDS011;57617;51.988;5.854;2022-12-24T03:50:43;51.08;;;4.47;;
70228;SDS011;57617;51.988;5.854;2022-12-24T03:53:09;56.28;;;5.15;;
70228;SDS011;57617;51.988;5.854;2022-12-24T03:55:34;33.58;;;3.63;;
70228;SDS011;57617;51.988;5.854;2022-12-24T03:58:00;41.50;;;4.60;;
70228;SDS011;57617;51.988;5.854;2022-12-24T04:00:25;53.03;;;4.47;;
70228;SDS011;57617;51.988;5.854;2022-12-24T04:02:50;53.22;;;5.40;;
70228;SDS011;57617;51.988;5.854;2022-12-24T04:05:17;40.72;;;4.85;;
70228;SDS011;57617;51.988;5.854;2022-12-24T04:07:44;45.97;;;4.53;;
70228;SDS011;57617;51.988;5.854;2022-12-24T04:10:09;37.15;;;4.50;;
70228;SDS011;57617;51.988;5.854;2022-12-24T04:12:35;48.63;;;4.82;;
70228;SDS011;57617;51.988;5.854;2022-12-24T04:15:01;53.38;;;5.32;;
70228;SDS011;57617;51.988;5.854;2022-12-24T04:17:27;54.50;;;5.35;;
70228;SDS011;57617;51.988;5.854;2022-12-24T04:19:52;50.55;;;5.40;;
70228;SDS011;57617;51.988;5.854;2022-12-24T04:22:20;40.50;;;5.15;;
70228;SDS011;57617;51.988;5.854;2022-12-24T04:24:46;35.22;;;4.93;;
70228;SDS011;57617;51.988;5.854;2022-12-24T04:27:14;46.38;;;6.25;;
70228;SDS011;57617;51.988;5.854;2022-12-24T04:29:40;53.13;;;6.43;;
70228;SDS011;57617;51.988;5.854;2022-12-24T04:32:06;46.08;;;5.50;;
70228;SDS011;57617;51.988;5.854;2022-12-24T04:34:31;38.60;;;6.00;;
70228;SDS011;57617;51.988;5.854;2022-12-24T04:36:56;46.33;;;6.15;;
70228;SDS011;57617;51.988;5.854;2022-12-24T04:39:21;40.97;;;6.15;;
70228;SDS011;57617;51.988;5.854;2022-12-24T04:41:47;37.10;;;5.35;;
70228;SDS011;57617;51.988;5.854;2022-12-24T04:44:12;50.17;;;5.75;;
70228;SDS011;57617;51.988;5.854;2022-12-24T04:46:37;46.45;;;5.53;;
70228;SDS011;57617;51.988;5.854;2022-12-24T04:49:03;48.80;;;6.50;;
70228;SDS011;57617;51.988;5.854;2022-12-24T04:51:28;44.97;;;5.68;;
70228;SDS011;57617;51.988;5.854;2022-12-24T04:53:54;46.10;;;5.50;;
70228;SDS011;57617;51.988;5.854;2022-12-24T04:56:21;46.00;;;5.50;;
70228;SDS011;57617;51.988;5.854;2022-12-24T04:58:48;48.40;;;5.97;;
70228;SDS011;57617;51.988;5.854;2022-12-24T05:01:16;39.55;;;5.47;;
70228;SDS011;57617;51.988;5.854;2022-12-24T05:03:43;39.15;;;5.68;;
70228;SDS011;57617;51.988;5.854;2022-12-24T05:06:10;38.95;;;5.05;;
70228;SDS011;57617;51.988;5.854;2022-12-24T05:08:37;38.70;;;5.80;;
70228;SDS011;57617;51.988;5.854;2022-12-24T05:11:03;48.05;;;5.75;;
70228;SDS011;57617;51.988;5.854;2022-12-24T05:13:29;49.45;;;5.53;;
70228;SDS011;57617;51.988;5.854;2022-12-24T05:15:54;40.78;;;5.18;;
70228;SDS011;57617;51.988;5.854;2022-12-24T05:18:20;41.85;;;5.90;;
70228;SDS011;57617;51.988;5.854;2022-12-24T05:20:46;47.17;;;6.28;;
70228;SDS011;57617;51.988;5.854;2022-12-24T05:23:18;40.70;;;4.60;;
70228;SDS011;57617;51.988;5.854;2022-12-24T05:28:57;50.38;;;5.30;;
70228;SDS011;57617;51.988;5.854;2022-12-24T05:31:24;43.42;;;6.07;;
70228;SDS011;57617;51.988;5.854;2022-12-24T05:33:52;45.30;;;5.68;;
70228;SDS011;57617;51.988;5.854;2022-12-24T05:36:18;45.90;;;5.80;;
70228;SDS011;57617;51.988;5.854;2022-12-24T05:38:44;43.05;;;5.57;;
70228;SDS011;57617;51.988;5.854;2022-12-24T05:41:09;48.33;;;5.90;;
70228;SDS011;57617;51.988;5.854;2022-12-24T05:43:35;51.13;;;5.15;;
70228;SDS011;57617;51.988;5.854;2022-12-24T05:46:05;42.35;;;5.85;;
70228;SDS011;57617;51.988;5.854;2022-12-24T05:48:32;47.10;;;5.43;;
70228;SDS011;57617;51.988;5.854;2022-12-24T05:50:58;55.25;;;5.60;;
70228;SDS011;57617;51.988;5.854;2022-12-24T05:53:24;56.90;;;7.38;;
70228;SDS011;57617;51.988;5.854;2022-12-24T05:55:49;52.33;;;6.82;;
70228;SDS011;57617;51.988;5.854;2022-12-24T05:58:15;57.53;;;6.18;;
70228;SDS011;57617;51.988;5.854;2022-12-24T06:00:41;50.50;;;5.68;;
70228;SDS011;57617;51.988;5.854;2022-12-24T06:03:06;37.60;;;6.18;;
70228;SDS011;57617;51.988;5.854;2022-12-24T06:05:31;45.15;;;6.18;;
70228;SDS011;57617;51.988;5.854;2022-12-24T06:07:57;45.67;;;5.55;;
70228;SDS011;57617;51.988;5.854;2022-12-24T06:10:22;46.92;;;6.93;;
70228;SDS011;57617;51.988;5.854;2022-12-24T06:12:47;47.67;;;5.65;;
70228;SDS011;57617;51.988;5.854;2022-12-24T06:15:13;46.83;;;5.63;;
70228;SDS011;57617;51.988;5.854;2022-12-24T06:17:38;50.75;;;5.88;;
70228;SDS011;57617;51.988;5.854;2022-12-24T06:20:04;61.65;;;7.07;;
70228;SDS011;57617;51.988;5.854;2022-12-24T06:22:29;47.10;;;5.25;;
70228;SDS011;57617;51.988;5.854;2022-12-24T06:24:55;50.25;;;6.50;;
70228;SDS011;57617;51.988;5.854;2022-12-24T06:27:20;42.30;;;5.43;;
70228;SDS011;57617;51.988;5.854;2022-12-24T06:29:45;45.97;;;5.80;;
70228;SDS011;57617;51.988;5.854;2022-12-24T06:32:11;53.13;;;5.63;;
70228;SDS011;57617;51.988;5.854;2022-12-24T06:34:36;52.88;;;5.72;;
70228;SDS011;57617;51.988;5.854;2022-12-24T06:37:01;42.65;;;5.45;;
70228;SDS011;57617;51.988;5.854;2022-12-24T06:39:27;46.03;;;5.05;;
70228;SDS011;57617;51.988;5.854;2022-12-24T06:41:52;49.67;;;5.50;;
70228;SDS011;57617;51.988;5.854;2022-12-24T06:44:17;54.65;;;6.05;;
70228;SDS011;57617;51.988;5.854;2022-12-24T06:46:43;42.85;;;5.38;;
70228;SDS011;57617;51.988;5.854;2022-12-24T06:49:08;51.05;;;7.03;;
70228;SDS011;57617;51.988;5.854;2022-12-24T06:51:33;45.78;;;6.75;;
70228;SDS011;57617;51.988;5.854;2022-12-24T06:53:59;37.83;;;6.47;;
70228;SDS011;57617;51.988;5.854;2022-12-24T06:56:24;57.55;;;6.18;;
70228;SDS011;57617;51.988;5.854;2022-12-24T06:58:49;44.95;;;6.68;;
70228;SDS011;57617;51.988;5.854;2022-12-24T07:01:15;42.67;;;6.50;;
70228;SDS011;57617;51.988;5.854;2022-12-24T07:03:43;49.70;;;7.30;;
70228;SDS011;57617;51.988;5.854;2022-12-24T07:06:14;59.53;;;7.10;;
70228;SDS011;57617;51.988;5.854;2022-12-24T07:08:42;50.88;;;7.55;;
70228;SDS011;57617;51.988;5.854;2022-12-24T07:11:08;58.40;;;7.55;;
70228;SDS011;57617;51.988;5.854;2022-12-24T07:13:33;51.15;;;7.00;;
70228;SDS011;57617;51.988;5.854;2022-12-24T07:15:59;45.72;;;7.93;;
70228;SDS011;57617;51.988;5.854;2022-12-24T07:18:26;62.63;;;10.30;;
70228;SDS011;57617;51.988;5.854;2022-12-24T07:20:52;67.40;;;11.00;;
70228;SDS011;57617;51.988;5.854;2022-12-24T07:23:17;58.92;;;11.45;;
70228;SDS011;57617;51.988;5.854;2022-12-24T07:25:43;51.78;;;10.68;;
70228;SDS011;57617;51.988;5.854;2022-12-24T07:28:08;56.22;;;12.02;;
70228;SDS011;57617;51.988;5.854;2022-12-24T07:30:33;53.15;;;11.65;;
70228;SDS011;57617;51.988;5.854;2022-12-24T07:32:58;49.00;;;8.18;;
70228;SDS011;57617;51.988;5.854;2022-12-24T07:35:24;43.88;;;6.03;;
70228;SDS011;57617;51.988;5.854;2022-12-24T07:37:49;54.45;;;6.85;;
70228;SDS011;57617;51.988;5.854;2022-12-24T07:40:14;44.72;;;7.75;;
70228;SDS011;57617;51.988;5.854;2022-12-24T07:42:40;62.88;;;11.73;;
70228;SDS011;57617;51.988;5.854;2022-12-24T07:45:05;46.00;;;6.93;;
70228;SDS011;57617;51.988;5.854;2022-12-24T07:47:31;51.30;;;12.35;;
70228;SDS011;57617;51.988;5.854;2022-12-24T07:49:56;46.60;;;6.93;;
70228;SDS011;57617;51.988;5.854;2022-12-24T07:52:22;29.50;;;5.38;;
70228;SDS011;57617;51.988;5.854;2022-12-24T07:54:47;45.80;;;5.80;;
70228;SDS011;57617;51.988;5.854;2022-12-24T07:57:12;46.92;;;5.90;;
70228;SDS011;57617;51.988;5.854;2022-12-24T07:59:38;40.28;;;6.28;;
70228;SDS011;57617;51.988;5.854;2022-12-24T08:02:03;37.88;;;5.82;;
70228;SDS011;57617;51.988;5.854;2022-12-24T08:04:30;39.17;;;6.10;;
70228;SDS011;57617;51.988;5.854;2022-12-24T08:06:57;46.13;;;5.93;;
70228;SDS011;57617;51.988;5.854;2022-12-24T08:09:22;51.53;;;6.45;;
70228;SDS011;57617;51.988;5.854;2022-12-24T08:11:47;44.92;;;6.93;;
70228;SDS011;57617;51.988;5.854;2022-12-24T08:14:13;49.47;;;5.85;;
70228;SDS011;57617;51.988;5.854;2022-12-24T08:16:38;41.47;;;6.13;;
70228;SDS011;57617;51.988;5.854;2022-12-24T08:19:04;44.35;;;6.25;;
70228;SDS011;57617;51.988;5.854;2022-12-24T08:21:29;49.35;;;6.30;;
70228;SDS011;57617;51.988;5.854;2022-12-24T08:23:54;47.97;;;6.45;;
70228;SDS011;57617;51.988;5.854;2022-12-24T08:26:19;41.33;;;5.15;;
70228;SDS011;57617;51.988;5.854;2022-12-24T08:28:45;36.83;;;5.47;;
70228;SDS011;57617;51.988;5.854;2022-12-24T08:31:10;50.17;;;5.80;;
70228;SDS011;57617;51.988;5.854;2022-12-24T08:33:35;49.78;;;5.75;;
70228;SDS011;57617;51.988;5.854;2022-12-24T08:36:01;43.78;;;5.53;;
70228;SDS011;57617;51.988;5.854;2022-12-24T08:38:27;44.83;;;6.32;;
70228;SDS011;57617;51.988;5.854;2022-12-24T08:40:53;52.67;;;7.15;;
70228;SDS011;57617;51.988;5.854;2022-12-24T08:43:19;51.08;;;6.03;;
70228;SDS011;57617;51.988;5.854;2022-12-24T08:45:46;42.72;;;5.78;;
70228;SDS011;57617;51.988;5.854;2022-12-24T08:48:13;45.92;;;5.85;;
70228;SDS011;57617;51.988;5.854;2022-12-24T08:50:39;42.28;;;5.13;;
70228;SDS011;57617;51.988;5.854;2022-12-24T08:53:06;44.03;;;6.60;;
70228;SDS011;57617;51.988;5.854;2022-12-24T08:55:32;38.45;;;5.85;;
70228;SDS011;57617;51.988;5.854;2022-12-24T08:58:00;40.10;;;5.75;;
70228;SDS011;57617;51.988;5.854;2022-12-24T09:00:26;36.42;;;5.95;;
70228;SDS011;57617;51.988;5.854;2022-12-24T09:02:51;44.25;;;6.18;;
70228;SDS011;57617;51.988;5.854;2022-12-24T09:05:17;49.60;;;6.88;;
70228;SDS011;57617;51.988;5.854;2022-12-24T09:07:42;41.78;;;6.28;;
70228;SDS011;57617;51.988;5.854;2022-12-24T09:10:08;38.90;;;6.38;;
70228;SDS011;57617;51.988;5.854;2022-12-24T09:12:33;44.85;;;6.55;;
70228;SDS011;57617;51.988;5.854;2022-12-24T09:14:59;42.03;;;6.20;;
70228;SDS011;57617;51.988;5.854;2022-12-24T09:17:24;52.95;;;6.70;;
70228;SDS011;57617;51.988;5.854;2022-12-24T09:19:49;41.63;;;6.18;;
70228;SDS011;57617;51.988;5.854;2022-12-24T09:22:15;49.63;;;6.78;;
70228;SDS011;57617;51.988;5.854;2022-12-24T09:24:40;48.95;;;7.45;;
70228;SDS011;57617;51.988;5.854;2022-12-24T09:27:05;46.17;;;7.13;;
70228;SDS011;57617;51.988;5.854;2022-12-24T09:29:31;44.40;;;6.80;;
70228;SDS011;57617;51.988;5.854;2022-12-24T09:31:56;40.75;;;7.82;;
70228;SDS011;57617;51.988;5.854;2022-12-24T09:34:22;38.50;;;6.90;;
70228;SDS011;57617;51.988;5.854;2022-12-24T09:36:48;54.50;;;7.32;;
70228;SDS011;57617;51.988;5.854;2022-12-24T09:39:15;49.55;;;8.35;;
70228;SDS011;57617;51.988;5.854;2022-12-24T09:41:46;39.90;;;7.15;;
70228;SDS011;57617;51.988;5.854;2022-12-24T09:46:53;47.60;;;7.50;;
70228;SDS011;57617;51.988;5.854;2022-12-24T09:49:20;49.20;;;6.97;;
70228;SDS011;57617;51.988;5.854;2022-12-24T09:51:50;43.90;;;7.28;;
70228;SDS011;57617;51.988;5.854;2022-12-24T09:54:29;44.40;;;7.18;;
70228;SDS011;57617;51.988;5.854;2022-12-24T09:57:27;42.55;;;6.88;;
70228;SDS011;57617;51.988;5.854;2022-12-24T09:59:56;42.15;;;6.53;;
70228;SDS011;57617;51.988;5.854;2022-12-24T10:02:21;43.72;;;7.18;;
70228;SDS011;57617;51.988;5.854;2022-12-24T10:04:50;42.88;;;6.80;;
70228;SDS011;57617;51.988;5.854;2022-12-24T10:10:30;38.35;;;6.28;;
70228;SDS011;57617;51.988;5.854;2022-12-24T10:16:07;44.08;;;6.95;;
70228;SDS011;57617;51.988;5.854;2022-12-24T10:25:02;45.50;;;6.75;;
70228;SDS011;57617;51.988;5.854;2022-12-24T10:27:37;39.38;;;6.13;;
70228;SDS011;57617;51.988;5.854;2022-12-24T10:32:40;45.88;;;6.50;;
70228;SDS011;57617;51.988;5.854;2022-12-24T10:37:41;43.83;;;6.20;;
70228;SDS011;57617;51.988;5.854;2022-12-24T10:40:51;46.05;;;5.57;;
70228;SDS011;57617;51.988;5.854;2022-12-24T10:43:21;45.03;;;5.78;;
70228;SDS011;57617;51.988;5.854;2022-12-24T10:45:50;40.08;;;5.57;;
70228;SDS011;57617;51.988;5.854;2022-12-24T10:48:36;35.88;;;6.15;;
70228;SDS011;57617;51.988;5.854;2022-12-24T10:51:09;39.17;;;5.97;;
70228;SDS011;57617;51.988;5.854;2022-12-24T10:53:41;39.65;;;5.97;;
70228;SDS011;57617;51.988;5.854;2022-12-24T10:56:11;37.17;;;5.80;;
70228;SDS011;57617;51.988;5.854;2022-12-24T10:58:49;38.92;;;6.70;;
70228;SDS011;57617;51.988;5.854;2022-12-24T11:01:16;45.38;;;6.47;;
70228;SDS011;57617;51.988;5.854;2022-12-24T11:03:42;39.38;;;5.95;;
70228;SDS011;57617;51.988;5.854;2022-12-24T11:06:11;32.50;;;5.68;;
70228;SDS011;57617;51.988;5.854;2022-12-24T11:08:40;46.72;;;5.78;;
70228;SDS011;57617;51.988;5.854;2022-12-24T11:11:08;36.90;;;6.03;;
70228;SDS011;57617;51.988;5.854;2022-12-24T11:13:37;40.58;;;6.13;;
70228;SDS011;57617;51.988;5.854;2022-12-24T11:16:31;35.20;;;5.70;;
70228;SDS011;57617;51.988;5.854;2022-12-24T11:19:00;37.47;;;5.97;;
70228;SDS011;57617;51.988;5.854;2022-12-24T11:24:04;35.50;;;6.05;;
70228;SDS011;57617;51.988;5.854;2022-12-24T11:26:38;35.53;;;5.30;;
70228;SDS011;57617;51.988;5.854;2022-12-24T11:31:45;42.38;;;5.47;;
70228;SDS011;57617;51.988;5.854;2022-12-24T11:34:21;31.10;;;4.70;;
70228;SDS011;57617;51.988;5.854;2022-12-24T11:39:44;39.50;;;5.28;;
70228;SDS011;57617;51.988;5.854;2022-12-24T11:44:53;36.50;;;5.82;;
70228;SDS011;57617;51.988;5.854;2022-12-24T11:47:34;39.38;;;4.80;;
70228;SDS011;57617;51.988;5.854;2022-12-24T11:50:21;33.53;;;5.43;;
70228;SDS011;57617;51.988;5.854;2022-12-24T12:00:55;26.20;;;4.28;;
70228;SDS011;57617;51.988;5.854;2022-12-24T12:03:31;29.35;;;4.22;;
70228;SDS011;57617;51.988;5.854;2022-12-24T12:06:06;29.70;;;4.05;;
70228;SDS011;57617;51.988;5.854;2022-12-24T12:08:44;41.95;;;4.90;;
70228;SDS011;57617;51.988;5.854;2022-12-24T12:11:11;26.98;;;3.92;;
70228;SDS011;57617;51.988;5.854;2022-12-24T12:13:38;36.17;;;4.93;;
70228;SDS011;57617;51.988;5.854;2022-12-24T12:18:46;28.50;;;3.85;;
70228;SDS011;57617;51.988;5.854;2022-12-24T12:21:20;23.33;;;3.88;;
70228;SDS011;57617;51.988;5.854;2022-12-24T12:23:51;29.15;;;3.78;;
70228;SDS011;57617;51.988;5.854;2022-12-24T12:26:25;30.58;;;4.40;;
70228;SDS011;57617;51.988;5.854;2022-12-24T12:29:38;25.40;;;5.30;;
70228;SDS011;57617;51.988;5.854;2022-12-24T12:31:56;23.42;;;4.22;;
70228;SDS011;57617;51.988;5.854;2022-12-24T12:37:17;28.70;;;4.20;;
70228;SDS011;57617;51.988;5.854;2022-12-24T12:39:51;29.88;;;4.50;;
70228;SDS011;57617;51.988;5.854;2022-12-24T12:44:53;27.27;;;4.45;;
70228;SDS011;57617;51.988;5.854;2022-12-24T12:52:22;27.13;;;3.65;;
70228;SDS011;57617;51.988;5.854;2022-12-24T12:58:00;25.50;;;4.35;;
70228;SDS011;57617;51.988;5.854;2022-12-24T13:00:37;24.13;;;3.42;;
70228;SDS011;57617;51.988;5.854;2022-12-24T13:03:20;29.10;;;4.40;;
70228;SDS011;57617;51.988;5.854;2022-12-24T13:12:11;26.48;;;3.20;;
70228;SDS011;57617;51.988;5.854;2022-12-24T13:20:36;30.45;;;4.32;;
70228;SDS011;57617;51.988;5.854;2022-12-24T13:23:21;38.13;;;4.18;;
70228;SDS011;57617;51.988;5.854;2022-12-24T13:25:49;22.95;;;3.35;;
70228;SDS011;57617;51.988;5.854;2022-12-24T13:28:17;22.52;;;3.38;;
70228;SDS011;57617;51.988;5.854;2022-12-24T13:33:50;21.75;;;3.75;;
70228;SDS011;57617;51.988;5.854;2022-12-24T13:36:17;23.65;;;3.70;;
70228;SDS011;57617;51.988;5.854;2022-12-24T13:38:47;23.38;;;3.53;;
70228;SDS011;57617;51.988;5.854;2022-12-24T13:46:46;33.65;;;3.35;;
70228;SDS011;57617;51.988;5.854;2022-12-24T13:49:17;53.00;;;3.97;;
70228;SDS011;57617;51.988;5.854;2022-12-24T13:51:45;31.33;;;3.60;;
70228;SDS011;57617;51.988;5.854;2022-12-24T13:54:11;20.90;;;3.58;;
70228;SDS011;57617;51.988;5.854;2022-12-24T13:56:38;28.38;;;4.30;;
70228;SDS011;57617;51.988;5.854;2022-12-24T13:59:10;22.48;;;3.40;;
70228;SDS011;57617;51.988;5.854;2022-12-24T14:01:44;24.35;;;3.15;;
70228;SDS011;57617;51.988;5.854;2022-12-24T14:04:17;31.27;;;3.67;;
70228;SDS011;57617;51.988;5.854;2022-12-24T14:06:49;25.95;;;4.28;;
70228;SDS011;57617;51.988;5.854;2022-12-24T14:09:19;34.17;;;4.47;;
70228;SDS011;57617;51.988;5.854;2022-12-24T14:14:33;26.95;;;5.78;;
70228;SDS011;57617;51.988;5.854;2022-12-24T14:17:00;20.67;;;3.58;;
70228;SDS011;57617;51.988;5.854;2022-12-24T14:19:51;25.35;;;3.17;;
70228;SDS011;57617;51.988;5.854;2022-12-24T14:24:52;24.38;;;2.83;;
70228;SDS011;57617;51.988;5.854;2022-12-24T14:27:31;22.90;;;3.05;;
70228;SDS011;57617;51.988;5.854;2022-12-24T14:30:00;22.38;;;4.15;;
70228;SDS011;57617;51.988;5.854;2022-12-24T14:32:36;33.30;;;4.13;;
70228;SDS011;57617;51.988;5.854;2022-12-24T14:35:06;32.13;;;3.58;;
70228;SDS011;57617;51.988;5.854;2022-12-24T14:37:34;27.80;;;3.97;;
70228;SDS011;57617;51.988;5.854;2022-12-24T14:40:01;23.65;;;3.80;;
70228;SDS011;57617;51.988;5.854;2022-12-24T14:42:33;25.42;;;4.28;;
70228;SDS011;57617;51.988;5.854;2022-12-24T14:50:43;28.08;;;4.32;;
70228;SDS011;57617;51.988;5.854;2022-12-24T14:53:32;24.30;;;4.55;;
70228;SDS011;57617;51.988;5.854;2022-12-24T14:56:19;27.83;;;5.13;;
70228;SDS011;57617;51.988;5.854;2022-12-24T14:58:46;30.75;;;4.85;;
70228;SDS011;57617;51.988;5.854;2022-12-24T15:01:18;35.22;;;5.20;;
70228;SDS011;57617;51.988;5.854;2022-12-24T15:04:04;23.42;;;5.32;;
70228;SDS011;57617;51.988;5.854;2022-12-24T15:09:19;30.23;;;5.20;;
70228;SDS011;57617;51.988;5.854;2022-12-24T15:11:47;29.33;;;5.80;;
70228;SDS011;57617;51.988;5.854;2022-12-24T15:14:16;35.25;;;10.38;;
70228;SDS011;57617;51.988;5.854;2022-12-24T15:16:51;38.85;;;10.75;;
70228;SDS011;57617;51.988;5.854;2022-12-24T15:19:21;35.95;;;7.30;;
70228;SDS011;57617;51.988;5.854;2022-12-24T15:21:52;35.63;;;11.63;;
70228;SDS011;57617;51.988;5.854;2022-12-24T15:24:22;37.90;;;9.10;;
70228;SDS011;57617;51.988;5.854;2022-12-24T15:26:50;32.40;;;8.77;;
70228;SDS011;57617;51.988;5.854;2022-12-24T15:29:20;32.85;;;7.63;;
70228;SDS011;57617;51.988;5.854;2022-12-24T15:31:54;40.90;;;8.20;;
70228;SDS011;57617;51.988;5.854;2022-12-24T15:34:25;29.90;;;7.82;;
70228;SDS011;57617;51.988;5.854;2022-12-24T15:37:27;36.08;;;7.18;;
70228;SDS011;57617;51.988;5.854;2022-12-24T15:39:54;30.27;;;6.85;;
70228;SDS011;57617;51.988;5.854;2022-12-24T15:42:33;37.97;;;6.00;;
70228;SDS011;57617;51.988;5.854;2022-12-24T15:45:04;36.00;;;7.20;;
70228;SDS011;57617;51.988;5.854;2022-12-24T15:47:53;38.47;;;11.80;;
70228;SDS011;57617;51.988;5.854;2022-12-24T15:50:18;49.45;;;16.25;;
70228;SDS011;57617;51.988;5.854;2022-12-24T15:52:50;58.55;;;18.00;;
70228;SDS011;57617;51.988;5.854;2022-12-24T15:55:37;48.55;;;10.68;;
70228;SDS011;57617;51.988;5.854;2022-12-24T15:58:22;45.65;;;10.73;;
70228;SDS011;57617;51.988;5.854;2022-12-24T16:03:34;40.50;;;8.98;;
70228;SDS011;57617;51.988;5.854;2022-12-24T16:06:04;35.50;;;7.63;;
70228;SDS011;57617;51.988;5.854;2022-12-24T16:08:31;34.22;;;7.55;;
70228;SDS011;57617;51.988;5.854;2022-12-24T16:13:28;40.25;;;8.13;;
70228;SDS011;57617;51.988;5.854;2022-12-24T16:16:00;33.33;;;7.05;;
70228;SDS011;57617;51.988;5.854;2022-12-24T16:21:06;34.80;;;8.30;;
70228;SDS011;57617;51.988;5.854;2022-12-24T16:23:44;37.72;;;8.07;;
70228;SDS011;57617;51.988;5.854;2022-12-24T16:26:11;32.22;;;8.15;;
70228;SDS011;57617;51.988;5.854;2022-12-24T16:28:37;40.58;;;8.95;;
70228;SDS011;57617;51.988;5.854;2022-12-24T16:31:02;30.17;;;8.48;;
70228;SDS011;57617;51.988;5.854;2022-12-24T16:33:28;34.85;;;8.98;;
70228;SDS011;57617;51.988;5.854;2022-12-24T16:35:53;47.33;;;9.98;;
70228;SDS011;57617;51.988;5.854;2022-12-24T16:38:19;34.83;;;9.43;;
70228;SDS011;57617;51.988;5.854;2022-12-24T16:40:44;39.15;;;10.30;;